createdAt,value
2022-08-10T00:01:55.947Z,51685.59
2022-08-10T00:04:25.727Z,51688.00
2022-08-10T00:06:55.774Z,51699.66
2022-08-10T00:09:25.662Z,51694.83
2022-08-10T00:11:55.525Z,51697.24
2022-08-10T00:14:25.408Z,51705.68
2022-08-10T00:16:55.349Z,51709.30
2022-08-10T00:19:25.498Z,51698.45
2022-08-10T00:22:16.991Z,51700.05
2022-08-10T00:24:47.022Z,51712.91
2022-08-10T00:27:52.376Z,51699.25
2022-08-10T00:30:07.399Z,51703.27
2022-08-10T00:32:37.271Z,51722.96
2022-08-10T00:35:07.665Z,51714.52
2022-08-10T00:37:37.564Z,51714.92
2022-08-10T00:40:09.269Z,51720.55
2022-08-10T00:42:39.493Z,51715.73
2022-08-10T00:45:09.851Z,51723.36
2022-08-10T00:47:39.900Z,51705.68
2022-08-10T00:50:10.702Z,51733.00
2022-08-10T00:52:40.577Z,51733.01
2022-08-10T00:55:10.760Z,51716.13
2022-08-10T00:57:40.829Z,51723.36
2022-08-10T01:00:11.912Z,51727.78
2022-08-10T01:02:41.969Z,51725.37
2022-08-10T01:05:12.549Z,51737.43
2022-08-10T01:07:46.942Z,51734.21
2022-08-10T01:10:19.791Z,51748.27
2022-08-10T01:12:52.009Z,51734.61
2022-08-10T01:15:24.067Z,51736.22
2022-08-10T01:17:56.106Z,51741.04
2022-08-10T01:20:31.000Z,51756.31
2022-08-10T01:23:11.540Z,51757.52
2022-08-10T01:26:11.600Z,51743.05
2022-08-10T01:28:40.504Z,51756.71
2022-08-10T01:31:10.526Z,51741.44
2022-08-10T01:33:58.101Z,51757.12
2022-08-10T01:36:32.265Z,51748.68
2022-08-10T01:39:03.566Z,51757.52
2022-08-10T01:41:46.137Z,51745.86
2022-08-10T01:44:20.407Z,51761.93
2022-08-10T01:46:52.012Z,51769.16
2022-08-10T01:49:27.130Z,51765.95
2022-08-10T01:52:00.474Z,51753.10
2022-08-10T01:54:31.151Z,51757.11
2022-08-10T01:57:01.244Z,51757.91
2022-08-10T01:59:31.902Z,51765.55
2022-08-10T02:02:03.345Z,51776.80
2022-08-10T02:04:34.371Z,51763.95
2022-08-10T02:07:04.569Z,51767.96
2022-08-10T02:09:34.621Z,51771.57
2022-08-10T02:12:08.617Z,51778.81
2022-08-10T02:14:40.870Z,51764.34
2022-08-10T02:17:59.065Z,51761.93
2022-08-10T02:20:04.425Z,51767.96
2022-08-10T02:22:45.659Z,51759.93
2022-08-10T02:25:40.706Z,51773.18
2022-08-10T02:28:06.165Z,51756.31
2022-08-10T02:30:36.013Z,51763.54
2022-08-10T02:33:06.119Z,51773.59
2022-08-10T02:35:53.746Z,51758.32
2022-08-10T02:38:58.622Z,51772.38
2022-08-10T02:45:15.497Z,51771.18
2022-08-10T02:45:21.565Z,51776.00
2022-08-10T02:47:00.497Z,51765.15
2022-08-10T02:49:33.745Z,51764.35
2022-08-10T02:52:08.190Z,51759.52
2022-08-10T02:54:39.117Z,51768.37
2022-08-10T02:57:10.922Z,51771.98
2022-08-10T02:59:41.594Z,51772.38
2022-08-10T03:02:12.489Z,51769.17
2022-08-10T03:04:55.091Z,51778.81
2022-08-10T03:07:43.320Z,51765.15
2022-08-10T03:10:15.912Z,51767.55
2022-08-10T03:12:45.719Z,51773.19
2022-08-10T03:15:16.245Z,51775.20
2022-08-10T03:17:57.114Z,51769.57
2022-08-10T03:20:36.909Z,51765.55
2022-08-10T03:23:11.892Z,51771.98
2022-08-10T03:25:53.249Z,51773.19
2022-08-10T03:28:24.842Z,51781.63
2022-08-10T03:30:54.767Z,51781.22
2022-08-10T03:33:24.829Z,51784.44
2022-08-10T03:36:42.445Z,51753.50
2022-08-10T03:38:48.865Z,51778.81
2022-08-10T03:41:20.084Z,51767.96
2022-08-10T03:43:50.215Z,51770.37
2022-08-10T03:46:20.553Z,51767.56
2022-08-10T03:48:51.698Z,51769.16
2022-08-10T03:51:22.092Z,51766.76
2022-08-10T03:54:03.588Z,51778.01
2022-08-10T03:56:37.779Z,51774.79
2022-08-10T03:59:08.277Z,51776.80
2022-08-10T04:02:43.628Z,51762.34
2022-08-10T04:04:28.653Z,51758.72
2022-08-10T04:06:58.821Z,51765.55
2022-08-10T04:09:43.341Z,51764.35
2022-08-10T04:12:19.502Z,51769.98
2022-08-10T04:14:52.376Z,51761.53
2022-08-10T04:18:03.975Z,51767.56
2022-08-10T04:20:15.368Z,51751.89
2022-08-10T04:22:45.183Z,51749.88
2022-08-10T04:25:15.633Z,51750.69
2022-08-10T04:27:45.907Z,51759.52
2022-08-10T04:30:16.284Z,51765.55
2022-08-10T04:32:47.121Z,51754.71
2022-08-10T04:35:17.329Z,51758.72
2022-08-10T04:37:47.815Z,51765.55
2022-08-10T04:40:29.488Z,51751.09
2022-08-10T04:43:11.673Z,51755.91
2022-08-10T04:45:47.786Z,51753.89
2022-08-10T04:48:42.057Z,51758.32
2022-08-10T04:51:10.994Z,51758.32
2022-08-10T04:54:05.223Z,51752.29
2022-08-10T04:56:35.153Z,51751.89
2022-08-10T04:59:05.383Z,51735.41
2022-08-10T05:02:09.858Z,51736.22
2022-08-10T05:04:35.097Z,51730.99
2022-08-10T05:07:10.075Z,51728.99
2022-08-10T05:10:00.452Z,51721.76
2022-08-10T05:12:30.343Z,51717.34
2022-08-10T05:15:00.349Z,51723.76
2022-08-10T05:17:30.205Z,51726.98
2022-08-10T05:20:03.102Z,51724.57
2022-08-10T05:22:37.510Z,51703.27
2022-08-10T05:25:09.116Z,51722.56
2022-08-10T05:27:39.821Z,51702.46
2022-08-10T05:30:10.814Z,51699.65
2022-08-10T05:32:57.755Z,51696.84
2022-08-10T05:35:56.526Z,51700.86
2022-08-10T05:38:19.704Z,51701.26
2022-08-10T05:40:50.014Z,51690.82
2022-08-10T05:43:20.628Z,51679.56
2022-08-10T05:46:18.083Z,51681.98
2022-08-10T05:48:58.746Z,51661.88
2022-08-10T05:51:31.032Z,51663.09
2022-08-10T05:54:06.106Z,51670.32
2022-08-10T05:56:54.727Z,51666.30
2022-08-10T06:00:11.020Z,51660.28
2022-08-10T06:02:32.897Z,51664.29
2022-08-10T06:05:09.528Z,51671.53
2022-08-10T06:07:40.836Z,51650.23
2022-08-10T06:10:12.785Z,51660.28
2022-08-10T06:12:54.406Z,51649.03
2022-08-10T06:15:50.478Z,51663.09
2022-08-10T06:18:16.865Z,51650.63
2022-08-10T06:20:47.414Z,51646.21
2022-08-10T06:23:17.784Z,51636.57
2022-08-10T06:26:08.832Z,51637.77
2022-08-10T06:28:39.241Z,51625.32
2022-08-10T06:31:09.158Z,51635.77
2022-08-10T06:33:39.647Z,51626.13
2022-08-10T06:36:09.489Z,51632.55
2022-08-10T06:38:40.206Z,51627.73
2022-08-10T06:41:17.986Z,51611.26
2022-08-10T06:43:51.469Z,51614.07
2022-08-10T06:46:21.998Z,51617.29
2022-08-10T06:48:52.692Z,51595.19
2022-08-10T06:51:24.528Z,51622.11
2022-08-10T06:53:55.410Z,51602.82
2022-08-10T06:56:37.668Z,51597.20
2022-08-10T06:59:13.446Z,51580.32
2022-08-10T07:01:53.766Z,51581.52
2022-08-10T07:04:32.258Z,51580.72
2022-08-10T07:07:07.079Z,51574.70
2022-08-10T07:09:38.488Z,51576.30
2022-08-10T07:12:09.678Z,51557.42
2022-08-10T07:14:40.556Z,51561.43
2022-08-10T07:17:15.348Z,51572.29
2022-08-10T07:19:49.457Z,51575.90
2022-08-10T07:23:50.775Z,51563.45
2022-08-10T07:25:11.832Z,51550.99
2022-08-10T07:28:00.922Z,51569.87
2022-08-10T07:30:32.352Z,51555.81
2022-08-10T07:33:03.108Z,51545.36
2022-08-10T07:35:41.805Z,51539.34
2022-08-10T07:38:14.998Z,51533.71
2022-08-10T07:40:44.955Z,51536.93
2022-08-10T07:43:15.173Z,51544.56
2022-08-10T07:45:45.091Z,51530.09
2022-08-10T07:48:15.469Z,51537.73
2022-08-10T07:50:46.681Z,51526.08
2022-08-10T07:53:19.068Z,51527.28
2022-08-10T07:56:05.100Z,51516.03
2022-08-10T07:58:40.070Z,51517.64
2022-08-10T08:01:16.646Z,51508.00
2022-08-10T08:04:10.853Z,51500.77
2022-08-10T08:06:38.713Z,51476.66
2022-08-10T08:09:08.717Z,51501.17
2022-08-10T08:11:40.951Z,51508.00
2022-08-10T08:14:11.330Z,51492.73
2022-08-10T08:16:41.995Z,51493.13
2022-08-10T08:19:32.825Z,51491.93
2022-08-10T08:24:10.410Z,51487.51
2022-08-10T08:24:52.400Z,51482.29
2022-08-10T08:27:22.706Z,51481.48
2022-08-10T08:29:52.816Z,51480.27
2022-08-10T08:32:24.184Z,51477.06
2022-08-10T08:34:56.035Z,51480.68
2022-08-10T08:38:33.326Z,51479.88
2022-08-10T08:40:17.899Z,51468.62
2022-08-10T08:42:54.901Z,51456.57
2022-08-10T08:45:25.443Z,51464.61
2022-08-10T08:48:05.627Z,51446.93
2022-08-10T08:50:41.717Z,51454.56
2022-08-10T08:53:22.157Z,51447.73
2022-08-10T08:56:05.531Z,51442.91
2022-08-10T08:58:40.404Z,51454.16
2022-08-10T09:01:22.390Z,51439.29
2022-08-10T09:03:59.781Z,51449.34
2022-08-10T09:06:35.471Z,51441.30
2022-08-10T09:09:24.827Z,51448.54
2022-08-10T09:12:00.631Z,51422.02
2022-08-10T09:14:32.261Z,51422.82
2022-08-10T09:17:04.905Z,51416.39
2022-08-10T09:19:38.151Z,51396.70
2022-08-10T09:22:17.935Z,51379.82
2022-08-10T09:24:58.268Z,51374.61
2022-08-10T09:27:28.545Z,51359.74
2022-08-10T09:30:03.952Z,51357.73
2022-08-10T09:36:15.645Z,51349.70
2022-08-10T09:36:24.066Z,51341.26
2022-08-10T09:38:26.636Z,51347.29
2022-08-10T09:41:04.992Z,51329.21
2022-08-10T09:43:42.657Z,51336.84
2022-08-10T09:46:15.658Z,51338.45
2022-08-10T09:48:47.441Z,51319.96
2022-08-10T09:54:17.945Z,51317.96
2022-08-10T09:56:50.065Z,51322.78
2022-08-10T09:59:27.281Z,51324.79
2022-08-10T10:02:15.706Z,51326.79
2022-08-10T10:04:47.699Z,51334.43
2022-08-10T10:07:18.948Z,51319.16
2022-08-10T10:09:49.729Z,51317.15
2022-08-10T10:12:21.364Z,51306.30
2022-08-10T10:15:24.407Z,51301.48
2022-08-10T10:18:12.265Z,51272.55
2022-08-10T10:20:43.059Z,51264.52
2022-08-10T10:23:16.176Z,51266.53
2022-08-10T10:25:51.630Z,51265.32
2022-08-10T10:28:25.365Z,51287.42
2022-08-10T10:31:17.933Z,51271.35
2022-08-10T10:33:51.552Z,51257.69
2022-08-10T10:36:21.564Z,51271.35
2022-08-10T10:38:51.596Z,51252.87
2022-08-10T10:41:25.786Z,51252.47
2022-08-10T10:43:59.963Z,51245.64
2022-08-10T10:46:52.371Z,51231.18
2022-08-10T10:49:24.590Z,51235.19
2022-08-10T10:51:56.139Z,51224.75
2022-08-10T10:54:34.199Z,51231.18
2022-08-10T10:57:05.624Z,51222.74
2022-08-10T10:59:55.016Z,51230.37
2022-08-10T11:02:32.909Z,51223.14
2022-08-10T11:05:06.561Z,51206.67
2022-08-10T11:07:38.038Z,51211.89
2022-08-10T11:10:33.024Z,51214.71
2022-08-10T11:14:24.651Z,51190.20
2022-08-10T11:16:01.553Z,51199.04
2022-08-10T11:18:34.768Z,51218.72
2022-08-10T11:21:05.560Z,51221.13
2022-08-10T11:23:36.984Z,51232.38
2022-08-10T11:26:10.251Z,51237.20
2022-08-10T11:28:40.625Z,51251.26
2022-08-10T11:31:12.185Z,51245.24
2022-08-10T11:34:03.814Z,51237.60
2022-08-10T11:36:33.253Z,51241.22
2022-08-10T11:39:14.325Z,51249.65
2022-08-10T11:42:11.703Z,51254.88
2022-08-10T11:44:42.045Z,51263.72
2022-08-10T11:47:12.844Z,51271.75
2022-08-10T11:49:45.996Z,51280.99
2022-08-10T11:52:16.901Z,51286.62
2022-08-10T11:54:48.837Z,51296.26
2022-08-10T11:57:21.834Z,51298.27
2022-08-10T12:00:00.980Z,51312.73
2022-08-10T12:02:33.455Z,51317.15
2022-08-10T12:05:05.284Z,51301.48
2022-08-10T12:09:24.007Z,51308.31
2022-08-10T12:10:26.006Z,51272.56
2022-08-10T12:12:57.014Z,51284.61
2022-08-10T12:15:28.708Z,51264.93
2022-08-10T12:18:00.080Z,51250.05
2022-08-10T12:20:31.249Z,51256.89
2022-08-10T12:23:02.050Z,51239.61
2022-08-10T12:25:57.423Z,51248.05
2022-08-10T12:28:50.937Z,51236.40
2022-08-10T12:31:21.228Z,51247.65
2022-08-10T12:34:01.315Z,51243.23
2022-08-10T12:36:35.629Z,51248.85
2022-08-10T12:39:06.840Z,51237.20
2022-08-10T12:41:44.979Z,51239.21
2022-08-10T12:44:18.020Z,51226.35
2022-08-10T12:46:51.635Z,51207.88
2022-08-10T12:49:22.951Z,51184.57
2022-08-10T12:51:55.125Z,51188.19
2022-08-10T12:54:32.343Z,51205.06
2022-08-10T12:57:04.020Z,51203.86
2022-08-10T12:59:43.455Z,51193.01
2022-08-10T13:02:16.775Z,51187.79
2022-08-10T13:04:47.177Z,51186.58
2022-08-10T13:08:24.748Z,51200.64
2022-08-10T13:10:11.952Z,51194.62
2022-08-10T13:12:42.269Z,51187.79
2022-08-10T13:15:45.823Z,51211.49
2022-08-10T13:18:04.944Z,51199.84
2022-08-10T13:20:35.950Z,51229.57
2022-08-10T13:23:07.202Z,51214.70
2022-08-10T13:25:38.232Z,51225.55
2022-08-10T13:28:35.693Z,51253.68
2022-08-10T13:30:58.881Z,51250.06
2022-08-10T13:34:41.096Z,51263.32
2022-08-10T13:36:22.170Z,51273.36
2022-08-10T13:38:52.042Z,51275.77
2022-08-10T13:41:21.754Z,51277.78
2022-08-10T13:43:53.551Z,51252.07
2022-08-10T13:46:23.792Z,51250.86
2022-08-10T13:48:54.566Z,51234.39
2022-08-10T13:51:53.957Z,51231.98
2022-08-10T13:54:16.561Z,51220.73
2022-08-10T13:56:47.260Z,51228.37
2022-08-10T13:59:17.246Z,51240.42
2022-08-10T14:01:49.493Z,51244.43
2022-08-10T14:04:20.267Z,51239.21
2022-08-10T14:06:55.874Z,51234.39
2022-08-10T14:09:27.267Z,51233.59
2022-08-10T14:11:57.691Z,51235.19
2022-08-10T14:14:28.908Z,51231.58
2022-08-10T14:16:58.795Z,51238.41
2022-08-10T14:19:30.382Z,51231.17
2022-08-10T14:22:00.152Z,51229.57
2022-08-10T14:24:30.436Z,51217.92
2022-08-10T14:27:01.496Z,51231.57
2022-08-10T14:29:31.539Z,51238.41
2022-08-10T14:32:02.451Z,51235.99
2022-08-10T14:36:15.521Z,51238.00
2022-08-10T14:37:25.882Z,51234.79
2022-08-10T14:39:58.173Z,51250.46
2022-08-10T14:42:29.561Z,51244.03
2022-08-10T14:45:00.307Z,51243.63
2022-08-10T14:48:03.297Z,51229.16
2022-08-10T14:50:32.509Z,51255.68
2022-08-10T14:53:09.241Z,51254.07
2022-08-10T14:55:59.264Z,51260.91
2022-08-10T14:58:31.661Z,51283.00
2022-08-10T15:01:01.667Z,51286.62
2022-08-10T15:03:59.425Z,51252.07
2022-08-10T15:06:31.022Z,51255.68
2022-08-10T15:09:18.817Z,51253.27
2022-08-10T15:12:15.293Z,51260.10
2022-08-10T15:14:43.922Z,51240.82
2022-08-10T15:17:17.536Z,51243.23
2022-08-10T15:20:03.329Z,51238.00
2022-08-10T15:22:42.006Z,51227.56
2022-08-10T15:25:18.970Z,51242.83
2022-08-10T15:27:55.740Z,51265.73
2022-08-10T15:30:30.883Z,51266.53
2022-08-10T15:33:20.906Z,51270.14
2022-08-10T15:36:27.669Z,51268.14
2022-08-10T15:39:00.219Z,51292.24
2022-08-10T15:41:57.406Z,51274.97
2022-08-10T15:44:33.281Z,51286.22
2022-08-10T15:47:05.800Z,51288.63
2022-08-10T15:49:37.399Z,51298.27
2022-08-10T15:52:08.198Z,51294.65
2022-08-10T15:54:41.502Z,51311.13
2022-08-10T15:57:13.716Z,51315.95
2022-08-10T15:59:44.952Z,51329.21
2022-08-10T16:02:17.572Z,51339.65
2022-08-10T16:04:49.525Z,51348.09
2022-08-10T16:07:20.700Z,51350.50
2022-08-10T16:10:22.306Z,51364.56
2022-08-10T16:12:42.365Z,51354.52
2022-08-10T16:15:13.288Z,51360.95
2022-08-10T16:17:55.686Z,51373.40
2022-08-10T16:20:27.749Z,51381.44
2022-08-10T16:22:59.105Z,51390.27
2022-08-10T16:25:48.138Z,51379.02
2022-08-10T16:28:19.998Z,51392.29
2022-08-10T16:30:54.122Z,51388.27
2022-08-10T16:33:52.518Z,51398.31
2022-08-10T16:36:16.213Z,51401.52
2022-08-10T16:38:47.127Z,51407.55
2022-08-10T16:42:00.212Z,51393.89
2022-08-10T16:44:07.252Z,51430.45
2022-08-10T16:46:37.109Z,51409.56
2022-08-10T16:49:06.993Z,51411.97
2022-08-10T16:51:36.969Z,51430.45
2022-08-10T16:54:07.147Z,51431.66
2022-08-10T16:56:49.147Z,51417.59
2022-08-10T16:59:24.196Z,51428.85
2022-08-10T17:01:54.777Z,51432.46
2022-08-10T17:04:25.266Z,51450.95
2022-08-10T17:06:57.050Z,51442.51
2022-08-10T17:09:28.038Z,51451.75
2022-08-10T17:11:58.466Z,51452.95
2022-08-10T17:14:28.978Z,51451.35
2022-08-10T17:17:00.522Z,51457.77
2022-08-10T17:19:31.468Z,51461.79
2022-08-10T17:22:01.678Z,51453.36
2022-08-10T17:24:32.135Z,51473.84
2022-08-10T17:28:05.822Z,51452.95
2022-08-10T17:30:02.779Z,51459.78
2022-08-10T17:32:44.303Z,51469.02
2022-08-10T17:35:21.042Z,51455.76
2022-08-10T17:37:56.797Z,51467.42
2022-08-10T17:40:27.809Z,51483.49
2022-08-10T17:42:58.048Z,51470.23
2022-08-10T17:45:47.841Z,51481.48
2022-08-10T17:48:19.182Z,51480.27
2022-08-10T17:50:51.620Z,51475.45
2022-08-10T17:53:22.196Z,51490.32
2022-08-10T17:55:58.298Z,51477.87
2022-08-10T17:58:28.298Z,51483.49
2022-08-10T18:01:26.276Z,51512.82
2022-08-10T18:03:51.520Z,51497.96
2022-08-10T18:06:21.608Z,51494.34
2022-08-10T18:08:54.813Z,51497.15
2022-08-10T18:11:25.589Z,51501.97
2022-08-10T18:14:02.075Z,51498.35
2022-08-10T18:16:33.948Z,51505.59
2022-08-10T18:19:06.771Z,51515.63
2022-08-10T18:21:38.971Z,51503.98
2022-08-10T18:24:16.465Z,51519.65
2022-08-10T18:26:47.475Z,51528.09
2022-08-10T18:29:18.749Z,51506.79
2022-08-10T18:31:50.694Z,51517.24
2022-08-10T18:34:22.161Z,51512.82
2022-08-10T18:36:52.375Z,51516.84
2022-08-10T18:39:23.535Z,51516.04
2022-08-10T18:42:00.249Z,51520.45
2022-08-10T18:44:36.511Z,51508.80
2022-08-10T18:47:08.841Z,51528.09
2022-08-10T18:49:43.173Z,51524.07
2022-08-10T18:52:14.441Z,51539.74
2022-08-10T18:54:46.116Z,51536.13
2022-08-10T18:57:22.727Z,51542.15
2022-08-10T19:00:07.982Z,51544.16
2022-08-10T19:02:57.932Z,51541.75
2022-08-10T19:05:32.453Z,51536.93
2022-08-10T19:08:19.495Z,51538.54
2022-08-10T19:11:03.734Z,51552.59
2022-08-10T19:13:38.515Z,51550.59
2022-08-10T19:16:14.992Z,51537.33
2022-08-10T19:18:47.101Z,51534.12
2022-08-10T19:21:18.374Z,51545.36
2022-08-10T19:23:56.031Z,51544.96
2022-08-10T19:26:42.169Z,51543.76
2022-08-10T19:30:09.857Z,51549.78
2022-08-10T19:32:26.007Z,51548.58
2022-08-10T19:35:00.091Z,51549.79
2022-08-10T19:37:33.833Z,51536.12
2022-08-10T19:40:18.267Z,51545.37
2022-08-10T19:42:54.035Z,51550.99
2022-08-10T19:46:01.108Z,51552.60
2022-08-10T19:48:20.796Z,51566.66
2022-08-10T19:50:55.230Z,51555.81
2022-08-10T19:53:26.706Z,51536.93
2022-08-10T19:56:13.147Z,51536.52
2022-08-10T19:58:50.102Z,51552.20
2022-08-10T20:01:20.162Z,51574.29
2022-08-10T20:03:51.223Z,51559.83
2022-08-10T20:06:23.990Z,51559.83
2022-08-10T20:08:57.929Z,51559.83
2022-08-10T20:11:44.086Z,51562.24
2022-08-10T20:14:22.105Z,51562.24
2022-08-10T20:16:53.496Z,51556.21
2022-08-10T20:19:53.441Z,51563.84
2022-08-10T20:22:29.142Z,51577.91
2022-08-10T20:25:04.477Z,51565.05
2022-08-10T20:28:06.823Z,51558.23
2022-08-10T20:30:28.803Z,51563.45
2022-08-10T20:33:00.032Z,51551.39
2022-08-10T20:35:32.505Z,51583.13
2022-08-10T20:38:05.150Z,51574.29
2022-08-10T20:40:36.612Z,51573.89
2022-08-10T20:43:08.640Z,51567.46
2022-08-10T20:46:05.150Z,51568.26
2022-08-10T20:48:33.870Z,51593.58
2022-08-10T20:51:04.018Z,51579.12
2022-08-10T20:53:35.152Z,51576.30
2022-08-10T20:56:18.768Z,51577.11
2022-08-10T20:59:05.469Z,51583.54
2022-08-10T21:02:05.929Z,51578.71
2022-08-10T21:04:45.384Z,51582.73
2022-08-10T21:07:57.972Z,51583.93
2022-08-10T21:10:14.659Z,51586.35
2022-08-10T21:12:52.204Z,51583.93
2022-08-10T21:15:25.599Z,51585.14
2022-08-10T21:18:00.292Z,51579.52
2022-08-10T21:20:39.745Z,51585.55
2022-08-10T21:23:17.444Z,51593.18
2022-08-10T21:25:48.402Z,51587.15
2022-08-10T21:28:34.451Z,51600.41
2022-08-10T21:31:09.611Z,51584.34
2022-08-10T21:33:42.304Z,51591.97
2022-08-10T21:36:13.082Z,51589.56
2022-08-10T21:38:47.241Z,51605.63
2022-08-10T21:41:57.464Z,51600.81
2022-08-10T21:44:53.920Z,51611.26
2022-08-10T21:48:07.261Z,51600.01
2022-08-10T21:50:53.092Z,51604.02
2022-08-10T21:53:45.104Z,51602.42
2022-08-10T21:56:36.475Z,51601.62
2022-08-10T21:59:24.076Z,51599.61
2022-08-10T22:02:12.339Z,51606.84
2022-08-10T22:04:59.756Z,51612.46
2022-08-10T22:07:48.361Z,51615.68
2022-08-10T22:10:36.253Z,51604.83
2022-08-10T22:13:24.280Z,51620.10
2022-08-10T22:16:13.094Z,51618.09
2022-08-10T22:19:02.988Z,51621.71
2022-08-10T22:21:57.421Z,51613.27
2022-08-10T22:24:47.256Z,51624.12
2022-08-10T22:27:46.692Z,51617.29
2022-08-10T22:30:36.199Z,51634.16
2022-08-10T22:33:32.926Z,51619.70
2022-08-10T22:36:32.430Z,51616.48
2022-08-10T22:40:11.551Z,51624.11
2022-08-10T22:42:59.422Z,51627.73
2022-08-10T22:45:43.922Z,51638.58
2022-08-10T22:48:31.431Z,51633.36
2022-08-10T22:51:08.415Z,51634.56
2022-08-10T22:54:11.334Z,51641.80
2022-08-10T22:57:19.376Z,51638.98
2022-08-10T22:59:49.487Z,51655.05
2022-08-10T23:02:23.524Z,51644.21
2022-08-10T23:04:54.206Z,51640.99
2022-08-10T23:07:25.282Z,51644.20
2022-08-10T23:09:59.543Z,51651.84
2022-08-10T23:12:31.962Z,51655.05
2022-08-10T23:15:19.565Z,51639.79
2022-08-10T23:18:09.775Z,51636.17
2022-08-10T23:20:39.667Z,51628.93
2022-08-10T23:23:10.946Z,51646.21
2022-08-10T23:25:56.557Z,51659.88
2022-08-10T23:28:58.234Z,51644.21
2022-08-10T23:31:58.394Z,51634.16
2022-08-10T23:34:08.953Z,51648.63
2022-08-10T23:36:39.389Z,51625.72
2022-08-10T23:39:26.806Z,51639.38
2022-08-10T23:42:01.934Z,51642.20
2022-08-10T23:44:38.790Z,51646.62
2022-08-10T23:47:08.891Z,51631.35
2022-08-10T23:49:40.301Z,51635.77
2022-08-10T23:52:12.153Z,51648.22
2022-08-10T23:54:50.375Z,51640.19
2022-08-10T23:57:21.405Z,51642.60
2022-08-10T23:59:52.639Z,51639.38
